Terminal Aerodrome Forecast
Issued by NWS

Home | Current Version | Previous Version | Text Only | Print | Product List | Glossary On
Versions: 1 2 3 4 5 6 7 8 9 10 11 12
385
FTAK31 PAJN 061729
TAFASI
TAF
PASI 061729Z 0618/0718 14014G21KT 5SM RA BR SCT015 OVC025
      WS020/20035KT
     FM062100 18014G21KT 6SM RA BR SCT008 BKN020 OVC035
      WS020/22035KT
     FM070100 21010KT P6SM -SHRA SCT020 OVC035
     FM070300 20008KT P6SM VCSH SCT035 OVC060=

USA.gov is the U.S. government's official web portal to all federal, state and local government web resources and services.